createdAt,value
2024-01-22T00:00:58.565Z,147779.09
2024-01-22T00:02:04.369Z,147732.25
2024-01-22T00:03:06.544Z,147737.30
2024-01-22T00:04:10.421Z,147725.89
2024-01-22T00:05:12.472Z,147698.03
2024-01-22T00:06:14.887Z,147670.16
2024-01-22T00:07:17.041Z,147703.08
2024-01-22T00:08:19.386Z,147708.13
2024-01-22T00:09:21.530Z,147673.95
2024-01-22T00:10:23.876Z,147629.64
2024-01-22T00:11:27.822Z,147624.53
2024-01-22T00:12:30.018Z,147628.34
2024-01-22T00:13:34.279Z,147679.02
2024-01-22T00:14:36.686Z,147653.69
2024-01-22T00:15:39.370Z,147637.23
2024-01-22T00:16:43.059Z,147620.73
2024-01-22T00:17:47.546Z,147615.69
2024-01-22T00:18:51.157Z,147614.44
2024-01-22T00:19:56.180Z,147604.28
2024-01-22T00:20:59.763Z,147592.88
2024-01-22T00:22:02.212Z,147600.48
2024-01-22T00:23:07.361Z,147619.48
2024-01-22T00:24:10.431Z,147638.50
2024-01-22T00:25:12.403Z,147663.81
2024-01-22T00:26:14.812Z,147632.14
2024-01-22T00:27:19.023Z,147637.23
2024-01-22T00:28:21.639Z,147601.78
2024-01-22T00:29:26.839Z,147632.14
2024-01-22T00:30:30.129Z,147616.94
2024-01-22T00:31:34.918Z,147634.69
2024-01-22T00:32:38.269Z,147642.30
2024-01-22T00:33:42.989Z,147634.69
2024-01-22T00:34:45.297Z,147651.14
2024-01-22T00:35:47.775Z,147651.14
2024-01-22T00:36:50.059Z,147652.41
2024-01-22T00:37:52.144Z,147599.22
2024-01-22T00:38:54.179Z,147654.95
2024-01-22T00:39:57.972Z,147609.34
2024-01-22T00:41:00.154Z,147567.56
2024-01-22T00:42:02.346Z,147566.31
2024-01-22T00:43:05.097Z,147582.78
2024-01-22T00:44:07.426Z,147556.17
2024-01-22T00:45:12.530Z,147547.31
2024-01-22T00:46:14.950Z,147556.17
2024-01-22T00:47:18.314Z,147573.92
2024-01-22T00:48:20.350Z,147601.78
2024-01-22T00:49:23.046Z,147601.78
2024-01-22T00:50:27.605Z,147613.13
2024-01-22T00:51:29.930Z,147601.78
2024-01-22T00:52:32.188Z,147623.28
2024-01-22T00:53:35.418Z,147639.75
2024-01-22T00:54:37.466Z,147622.03
2024-01-22T00:55:41.413Z,147596.69
2024-01-22T00:56:43.897Z,147604.28
2024-01-22T00:57:48.171Z,147606.83
2024-01-22T00:58:50.961Z,147590.38
2024-01-22T00:59:53.451Z,147609.34
2024-01-22T01:00:57.975Z,147581.47
2024-01-22T01:02:00.416Z,147547.31
2024-01-22T01:03:02.940Z,147578.97
2024-01-22T01:04:05.178Z,147543.52
2024-01-22T01:05:10.077Z,147540.97
2024-01-22T01:06:13.822Z,147497.92
2024-01-22T01:07:16.131Z,147494.13
2024-01-22T01:08:18.067Z,147516.92
2024-01-22T01:09:21.372Z,147520.72
2024-01-22T01:10:23.760Z,147540.97
2024-01-22T01:11:25.849Z,147478.97
2024-01-22T01:12:30.822Z,147485.27
2024-01-22T01:13:34.101Z,147505.52
2024-01-22T01:14:36.260Z,147489.06
2024-01-22T01:15:39.082Z,147410.58
2024-01-22T01:16:41.839Z,147338.47
2024-01-22T01:17:44.084Z,147421.98
2024-01-22T01:18:48.525Z,147485.27
2024-01-22T01:19:50.929Z,147520.72
2024-01-22T01:20:53.118Z,147497.92
2024-01-22T01:21:55.122Z,147492.87
2024-01-22T01:22:57.247Z,147477.67
2024-01-22T01:24:00.598Z,147487.81
2024-01-22T01:25:03.072Z,147463.78
2024-01-22T01:26:05.722Z,147434.63
2024-01-22T01:27:08.039Z,147518.17
2024-01-22T01:28:10.175Z,147537.17
2024-01-22T01:29:12.559Z,147557.42
2024-01-22T01:30:15.290Z,147566.31
2024-01-22T01:31:17.654Z,147554.92
2024-01-22T01:32:19.956Z,147568.81
2024-01-22T01:33:24.322Z,147594.17
2024-01-22T01:34:26.905Z,147554.92
2024-01-22T01:35:30.934Z,147503.02
2024-01-22T01:36:33.332Z,147490.31
2024-01-22T01:37:35.587Z,147528.31
2024-01-22T01:38:38.823Z,147547.31
2024-01-22T01:39:41.711Z,147548.56
2024-01-22T01:40:44.080Z,147561.22
2024-01-22T01:41:51.089Z,147592.88
2024-01-22T01:42:55.877Z,147608.08
2024-01-22T01:43:58.664Z,147599.22
2024-01-22T01:45:04.591Z,147615.69
2024-01-22T01:46:08.323Z,147616.94
2024-01-22T01:47:10.532Z,147639.75
2024-01-22T01:48:14.139Z,147632.14
2024-01-22T01:49:16.518Z,147594.17
2024-01-22T01:50:19.907Z,147611.88
2024-01-22T01:51:24.316Z,147586.58
2024-01-22T01:52:26.663Z,147585.28
2024-01-22T01:53:28.765Z,147553.63
2024-01-22T01:54:31.351Z,147540.97
2024-01-22T01:55:36.062Z,147500.47
2024-01-22T01:56:39.736Z,147547.31
2024-01-22T01:57:45.941Z,147553.63
2024-01-22T01:58:49.417Z,147567.56
2024-01-22T01:59:53.251Z,147573.92
2024-01-22T02:00:57.320Z,147589.08
2024-01-22T02:02:00.346Z,147594.17
2024-01-22T02:03:04.133Z,147601.78
2024-01-22T02:04:06.849Z,147591.62
2024-01-22T02:05:09.505Z,147581.47
2024-01-22T02:06:16.545Z,147571.38
2024-01-22T02:07:18.801Z,147540.97
2024-01-22T02:08:21.072Z,147506.81
2024-01-22T02:09:23.408Z,147543.52
2024-01-22T02:10:25.945Z,147558.72
2024-01-22T02:11:27.958Z,147553.63
2024-01-22T02:12:31.230Z,147580.22
2024-01-22T02:13:34.587Z,147552.37
2024-01-22T02:14:36.990Z,147567.56
2024-01-22T02:15:39.513Z,147591.62
2024-01-22T02:16:43.002Z,147566.31
2024-01-22T02:17:48.487Z,147568.81
2024-01-22T02:18:50.632Z,147594.17
2024-01-22T02:19:52.695Z,147570.13
2024-01-22T02:20:55.420Z,147546.02
2024-01-22T02:21:58.543Z,147599.22
2024-01-22T02:23:07.453Z,147614.44
2024-01-22T02:24:09.581Z,147610.63
2024-01-22T02:25:13.053Z,147576.42
2024-01-22T02:26:17.133Z,147578.97
2024-01-22T02:27:19.904Z,147566.31
2024-01-22T02:28:22.452Z,147557.42
2024-01-22T02:29:25.918Z,147533.38
2024-01-22T02:30:28.654Z,147524.52
2024-01-22T02:31:31.367Z,147547.31
2024-01-22T02:32:33.465Z,147547.31
2024-01-22T02:33:35.942Z,147546.02
2024-01-22T02:34:38.165Z,147543.52
2024-01-22T02:35:41.471Z,147563.77
2024-01-22T02:36:43.748Z,147559.97
2024-01-22T02:37:46.454Z,147576.42
2024-01-22T02:38:48.578Z,147533.38
2024-01-22T02:39:50.671Z,147547.31
2024-01-22T02:40:53.146Z,147533.38
2024-01-22T02:41:55.134Z,147521.97
2024-01-22T02:42:57.135Z,147528.31
2024-01-22T02:43:59.136Z,147558.72
2024-01-22T02:45:04.086Z,147537.17
2024-01-22T02:46:06.494Z,147528.31
2024-01-22T02:47:09.566Z,147552.37
2024-01-22T02:48:14.730Z,147558.72
2024-01-22T02:49:17.025Z,147525.77
2024-01-22T02:50:20.823Z,147496.66
2024-01-22T02:51:22.755Z,147505.52
2024-01-22T02:52:24.711Z,147538.47
2024-01-22T02:53:28.002Z,147492.87
2024-01-22T02:54:30.053Z,147478.97
2024-01-22T02:55:32.052Z,147500.47
2024-01-22T02:56:34.374Z,147504.27
2024-01-22T02:57:36.433Z,147490.31
2024-01-22T02:58:38.733Z,147521.97
2024-01-22T02:59:42.364Z,147503.02
2024-01-22T03:00:45.739Z,147500.47
2024-01-22T03:01:49.774Z,147513.13
2024-01-22T03:02:52.799Z,147510.61
2024-01-22T03:03:55.027Z,147527.06
2024-01-22T03:04:57.572Z,147511.87
2024-01-22T03:05:59.883Z,147553.63
2024-01-22T03:07:02.198Z,147535.92
2024-01-22T03:08:07.806Z,147535.92
2024-01-22T03:09:09.794Z,147525.77
2024-01-22T03:10:13.463Z,147528.31
2024-01-22T03:11:17.734Z,147523.27
2024-01-22T03:12:22.402Z,147511.87
2024-01-22T03:13:24.561Z,147500.47
2024-01-22T03:14:26.897Z,147505.52
2024-01-22T03:15:28.817Z,147513.13
2024-01-22T03:16:31.321Z,147519.47
2024-01-22T03:17:34.584Z,147525.77
2024-01-22T03:18:36.681Z,147529.56
2024-01-22T03:19:38.926Z,147500.47
2024-01-22T03:20:41.730Z,147501.72
2024-01-22T03:21:43.686Z,147529.56
2024-01-22T03:22:45.727Z,147521.97
2024-01-22T03:23:51.755Z,147514.38
2024-01-22T03:24:53.875Z,147497.92
2024-01-22T03:25:56.065Z,147505.52
2024-01-22T03:26:58.197Z,147524.52
2024-01-22T03:28:01.607Z,147518.17
2024-01-22T03:29:03.696Z,147537.17
2024-01-22T03:30:10.459Z,147532.13
2024-01-22T03:31:29.355Z,147494.13
2024-01-22T03:32:31.548Z,147516.92
2024-01-22T03:33:35.289Z,147525.77
2024-01-22T03:34:41.024Z,147525.77
2024-01-22T03:35:43.075Z,147525.77
2024-01-22T03:36:46.823Z,147524.52
2024-01-22T03:37:49.954Z,147519.47
2024-01-22T03:38:52.913Z,147477.67
2024-01-22T03:39:55.054Z,147457.42
2024-01-22T03:40:57.422Z,147452.38
2024-01-22T03:41:59.464Z,147472.63
2024-01-22T03:43:04.192Z,147471.37
2024-01-22T03:44:06.305Z,147405.53
2024-01-22T03:45:09.886Z,147470.06
2024-01-22T03:46:14.105Z,147482.72
2024-01-22T03:47:16.338Z,147373.91
2024-01-22T03:48:18.603Z,147286.61
2024-01-22T03:49:21.988Z,147222.06
2024-01-22T03:50:24.323Z,147318.23
2024-01-22T03:51:26.488Z,147381.50
2024-01-22T03:52:29.791Z,147414.38
2024-01-22T03:53:33.105Z,147401.73
2024-01-22T03:54:35.335Z,147437.19
2024-01-22T03:55:37.342Z,147377.70
2024-01-22T03:56:39.694Z,147411.89
2024-01-22T03:57:44.021Z,147377.70
2024-01-22T03:58:46.768Z,147452.38
2024-01-22T03:59:49.306Z,147447.28
2024-01-22T04:00:51.932Z,147448.58
2024-01-22T04:01:58.505Z,147481.47
2024-01-22T04:03:00.733Z,147457.42
2024-01-22T04:04:06.492Z,147492.87
2024-01-22T04:05:11.499Z,147503.02
2024-01-22T04:06:15.226Z,147513.13
2024-01-22T04:07:17.673Z,147467.56
2024-01-22T04:08:20.883Z,147239.80
2024-01-22T04:09:23.589Z,147357.47
2024-01-22T04:10:25.983Z,147446.03
2024-01-22T04:11:29.371Z,147467.56
2024-01-22T04:12:31.456Z,147456.17
2024-01-22T04:13:35.660Z,147495.42
2024-01-22T04:14:41.582Z,147496.66
2024-01-22T04:15:44.662Z,147495.42
2024-01-22T04:16:47.062Z,147495.42
2024-01-22T04:17:49.740Z,147401.73
2024-01-22T04:18:52.286Z,147443.53
2024-01-22T04:19:54.525Z,147451.08
2024-01-22T04:20:57.127Z,147472.63
2024-01-22T04:21:59.251Z,147467.56
2024-01-22T04:23:01.350Z,147459.97
2024-01-22T04:24:05.854Z,147480.22
2024-01-22T04:25:11.616Z,147478.97
2024-01-22T04:26:14.154Z,147481.47
2024-01-22T04:27:16.280Z,147503.02
2024-01-22T04:28:18.725Z,147504.27
2024-01-22T04:29:22.023Z,147543.52
2024-01-22T04:30:24.401Z,147543.52
2024-01-22T04:31:28.716Z,147538.47
2024-01-22T04:32:31.072Z,147520.72
2024-01-22T04:33:34.171Z,147504.27
2024-01-22T04:34:38.374Z,147515.67
2024-01-22T04:35:41.848Z,147497.92
2024-01-22T04:36:44.291Z,147399.19
2024-01-22T04:37:46.782Z,147472.63
2024-01-22T04:38:50.855Z,147494.13
2024-01-22T04:39:52.907Z,147254.98
2024-01-22T04:41:00.102Z,147346.06
2024-01-22T04:42:04.401Z,147428.33
2024-01-22T04:43:06.806Z,147404.28
2024-01-22T04:44:09.411Z,147406.78
2024-01-22T04:45:12.723Z,147285.31
2024-01-22T04:46:14.928Z,147391.59
2024-01-22T04:47:16.856Z,147424.53
2024-01-22T04:48:18.812Z,147444.78
2024-01-22T04:49:21.004Z,147459.97
2024-01-22T04:50:24.853Z,147444.78
2024-01-22T04:51:29.309Z,147396.69
2024-01-22T04:52:31.660Z,147394.14
2024-01-22T04:53:35.288Z,147313.19
2024-01-22T04:54:39.578Z,147373.91
2024-01-22T04:55:44.492Z,147416.94
2024-01-22T04:56:48.710Z,147414.38
2024-01-22T04:57:50.994Z,147458.67
2024-01-22T04:58:53.494Z,147418.19
2024-01-22T04:59:57.795Z,147338.47
2024-01-22T05:01:00.570Z,147389.09
2024-01-22T05:02:02.896Z,147386.55
2024-01-22T05:03:05.321Z,147390.34
2024-01-22T05:04:07.757Z,147451.08
2024-01-22T05:05:10.090Z,147429.58
2024-01-22T05:06:12.408Z,147409.34
2024-01-22T05:07:14.487Z,147434.63
2024-01-22T05:08:18.793Z,147429.58
2024-01-22T05:09:22.213Z,147400.48
2024-01-22T05:10:25.248Z,147435.94
2024-01-22T05:11:27.299Z,147465.03
2024-01-22T05:12:30.806Z,147485.27
2024-01-22T05:13:34.998Z,147453.63
2024-01-22T05:14:38.907Z,147447.28
2024-01-22T05:15:42.461Z,147301.80
2024-01-22T05:16:44.702Z,147409.34
2024-01-22T05:17:47.205Z,147495.42
2024-01-22T05:18:51.657Z,147499.22
2024-01-22T05:19:53.852Z,147508.06
2024-01-22T05:20:56.091Z,147503.02
2024-01-22T05:22:00.048Z,147506.81
2024-01-22T05:23:01.989Z,147433.38
2024-01-22T05:24:05.509Z,147500.47
2024-01-22T05:25:07.582Z,147530.86
2024-01-22T05:26:10.002Z,147505.52
2024-01-22T05:27:13.032Z,147520.72
2024-01-22T05:28:15.439Z,147504.27
2024-01-22T05:29:17.457Z,147491.63
2024-01-22T05:30:22.139Z,147521.97
2024-01-22T05:31:24.170Z,147424.53
2024-01-22T05:32:26.105Z,147477.67
2024-01-22T05:33:29.438Z,147465.03
2024-01-22T05:34:31.570Z,147418.19
2024-01-22T05:35:36.664Z,147272.67
2024-01-22T05:36:38.897Z,147432.12
2024-01-22T05:37:41.201Z,147447.28
2024-01-22T05:38:44.314Z,147292.91
2024-01-22T05:39:46.582Z,147418.19
2024-01-22T05:40:48.883Z,147485.27
2024-01-22T05:41:51.555Z,147477.67
2024-01-22T05:42:53.928Z,147444.78
2024-01-22T05:43:57.693Z,147444.78
2024-01-22T05:45:00.370Z,147477.67
2024-01-22T05:46:04.236Z,147367.56
2024-01-22T05:47:06.279Z,147343.52
2024-01-22T05:48:11.213Z,147381.50
2024-01-22T05:49:14.878Z,147423.23
2024-01-22T05:50:17.244Z,147568.81
2024-01-22T05:51:21.400Z,147614.44
2024-01-22T05:52:23.726Z,147663.81
2024-01-22T05:53:25.856Z,147652.41
2024-01-22T05:54:27.832Z,147497.92
2024-01-22T05:55:30.077Z,147467.56
2024-01-22T05:56:32.771Z,147368.84
2024-01-22T05:57:34.933Z,147406.78
2024-01-22T05:58:37.097Z,147456.17
2024-01-22T05:59:39.315Z,147515.67
2024-01-22T06:00:41.621Z,147443.53
2024-01-22T06:01:47.767Z,147515.67
2024-01-22T06:02:49.800Z,147504.27
2024-01-22T06:03:53.317Z,147595.42
2024-01-22T06:04:58.064Z,147521.97
2024-01-22T06:06:00.223Z,147525.77
2024-01-22T06:07:05.668Z,147582.78
2024-01-22T06:08:06.377Z,147576.42
2024-01-22T06:09:08.293Z,147576.42
2024-01-22T06:10:10.916Z,147570.13
2024-01-22T06:11:16.265Z,147575.17
2024-01-22T06:12:18.570Z,147570.13
2024-01-22T06:13:21.572Z,147570.13
2024-01-22T06:14:24.061Z,147540.97
2024-01-22T06:15:26.083Z,147559.97
2024-01-22T06:16:28.603Z,147576.42
2024-01-22T06:17:32.766Z,147576.42
2024-01-22T06:18:36.451Z,147606.83
2024-01-22T06:19:38.948Z,147548.56
2024-01-22T06:20:42.842Z,147584.03
2024-01-22T06:21:45.090Z,147571.38
2024-01-22T06:22:48.552Z,147535.92
2024-01-22T06:23:50.775Z,147487.81
2024-01-22T06:24:52.954Z,147578.97
2024-01-22T06:25:55.448Z,147596.69
2024-01-22T06:26:57.904Z,147587.83
2024-01-22T06:28:00.062Z,147622.03
2024-01-22T06:29:02.273Z,147618.23
2024-01-22T06:30:05.947Z,147604.28
2024-01-22T06:31:10.296Z,147589.08
2024-01-22T06:32:13.404Z,147604.28
2024-01-22T06:33:15.429Z,147558.72
2024-01-22T06:34:18.388Z,147500.47
2024-01-22T06:35:22.377Z,147505.52
2024-01-22T06:36:24.882Z,147425.78
2024-01-22T06:37:29.283Z,147523.27
2024-01-22T06:38:31.269Z,147571.38
2024-01-22T06:39:35.200Z,147590.38
2024-01-22T06:40:38.991Z,147585.28
2024-01-22T06:41:42.274Z,147568.81
2024-01-22T06:42:44.707Z,147596.69
2024-01-22T06:43:47.856Z,147641.05
2024-01-22T06:44:49.826Z,147616.94
2024-01-22T06:45:52.441Z,147599.22
2024-01-22T06:46:54.791Z,147542.27
2024-01-22T06:47:58.093Z,147611.88
2024-01-22T06:49:01.985Z,147443.53
2024-01-22T06:50:05.915Z,147359.95
2024-01-22T06:51:11.567Z,147524.52
2024-01-22T06:52:14.811Z,147613.13
2024-01-22T06:53:16.956Z,147546.02
2024-01-22T06:54:20.850Z,147577.67
2024-01-22T06:55:23.696Z,147580.22
2024-01-22T06:56:26.261Z,147591.62
2024-01-22T06:57:28.394Z,147594.17
2024-01-22T06:58:33.347Z,147622.03
2024-01-22T06:59:39.452Z,147622.03
2024-01-22T07:00:42.222Z,147618.23
2024-01-22T07:01:47.294Z,147671.41
2024-01-22T07:02:49.391Z,147698.03
2024-01-22T07:03:54.124Z,147696.77
2024-01-22T07:04:56.134Z,147687.87
2024-01-22T07:06:00.914Z,147654.95
2024-01-22T07:07:05.527Z,147548.56
2024-01-22T07:08:13.368Z,147594.17
2024-01-22T07:09:15.660Z,147624.53
2024-01-22T07:10:18.324Z,147700.56
2024-01-22T07:11:20.664Z,147647.34
2024-01-22T07:12:24.871Z,147657.50
2024-01-22T07:13:28.393Z,147573.92
2024-01-22T07:14:30.401Z,147491.63
2024-01-22T07:15:32.917Z,147595.42
2024-01-22T07:16:37.958Z,147524.52
2024-01-22T07:17:40.930Z,147586.58
2024-01-22T07:18:44.052Z,147527.06
2024-01-22T07:19:46.686Z,147435.94
2024-01-22T07:20:49.012Z,147563.77
2024-01-22T07:21:51.101Z,147461.22
2024-01-22T07:22:56.245Z,147476.42
2024-01-22T07:23:58.321Z,147535.92
2024-01-22T07:25:00.597Z,147440.97
2024-01-22T07:26:05.307Z,147389.09
2024-01-22T07:27:07.384Z,147416.94
2024-01-22T07:28:09.331Z,147459.97
2024-01-22T07:29:11.598Z,147540.97
2024-01-22T07:30:14.969Z,147559.97
2024-01-22T07:31:17.203Z,147615.69
2024-01-22T07:32:19.213Z,147573.92
2024-01-22T07:33:22.739Z,147601.78
2024-01-22T07:34:24.951Z,147642.30
2024-01-22T07:35:27.775Z,147705.63
2024-01-22T07:36:30.018Z,147722.09
2024-01-22T07:37:31.973Z,147573.92
2024-01-22T07:38:33.977Z,147520.72
2024-01-22T07:39:36.071Z,147590.38
2024-01-22T07:40:38.316Z,147530.86
2024-01-22T07:41:40.279Z,147592.88
2024-01-22T07:42:42.973Z,147665.09
2024-01-22T07:43:45.249Z,147706.88
2024-01-22T07:44:51.446Z,147573.92
2024-01-22T07:45:55.834Z,147672.70
2024-01-22T07:47:00.261Z,147784.19
2024-01-22T07:48:03.283Z,147812.06
2024-01-22T07:49:05.786Z,147871.63
2024-01-22T07:50:10.247Z,147799.41
2024-01-22T07:51:12.351Z,147757.56
2024-01-22T07:52:16.450Z,147620.73
2024-01-22T07:53:19.406Z,147756.31
2024-01-22T07:54:25.607Z,147824.72
2024-01-22T07:55:31.640Z,147758.81
2024-01-22T07:56:33.859Z,147724.64
2024-01-22T07:57:37.869Z,147766.42
2024-01-22T07:58:39.906Z,147784.19
2024-01-22T07:59:44.634Z,147609.34
2024-01-22T08:00:47.184Z,147581.47
2024-01-22T08:01:49.361Z,147675.22
2024-01-22T08:02:51.765Z,147561.22
2024-01-22T08:03:54.474Z,147661.30
2024-01-22T08:04:58.748Z,147699.28
2024-01-22T08:06:01.347Z,147761.38
2024-01-22T08:07:05.452Z,147796.84
2024-01-22T08:08:09.708Z,147806.97
2024-01-22T08:09:12.973Z,147839.94
2024-01-22T08:10:16.057Z,147869.08
2024-01-22T08:11:18.436Z,147822.17
2024-01-22T08:12:20.555Z,147680.27
2024-01-22T08:13:24.708Z,147677.77
2024-01-22T08:14:26.656Z,147629.64
2024-01-22T08:15:29.451Z,147817.13
2024-01-22T08:16:32.550Z,147870.33
2024-01-22T08:17:34.732Z,147881.75
2024-01-22T08:18:37.131Z,147933.72
2024-01-22T08:19:40.511Z,147914.73
2024-01-22T08:20:43.399Z,147923.59
2024-01-22T08:21:45.734Z,147951.48
2024-01-22T08:22:48.856Z,147965.45
2024-01-22T08:23:51.163Z,147997.16
2024-01-22T08:24:55.401Z,147961.64
2024-01-22T08:25:57.551Z,147743.61
2024-01-22T08:27:02.055Z,147668.91
2024-01-22T08:28:05.445Z,147596.69
2024-01-22T08:29:07.507Z,147644.80
2024-01-22T08:30:12.554Z,147756.31
2024-01-22T08:31:14.629Z,147762.63
2024-01-22T08:32:18.515Z,147779.09
2024-01-22T08:33:20.855Z,147856.41
2024-01-22T08:34:23.596Z,147718.28
2024-01-22T08:35:26.069Z,147786.69
2024-01-22T08:36:28.226Z,147594.17
2024-01-22T08:37:30.662Z,147749.95
2024-01-22T08:38:35.422Z,147768.97
2024-01-22T08:39:37.719Z,147772.78
2024-01-22T08:40:42.702Z,147660.00
2024-01-22T08:41:44.902Z,147725.89
2024-01-22T08:42:52.768Z,147790.50
2024-01-22T08:43:56.389Z,147756.31
2024-01-22T08:44:59.510Z,147799.41
2024-01-22T08:46:03.512Z,147756.31
2024-01-22T08:47:07.754Z,147846.25
2024-01-22T08:48:11.368Z,147730.94
2024-01-22T08:49:13.578Z,147654.95
2024-01-22T08:50:16.811Z,147743.61
2024-01-22T08:51:20.202Z,147751.20
2024-01-22T08:52:22.318Z,147660.00
2024-01-22T08:53:24.770Z,147627.09
2024-01-22T08:54:28.047Z,147732.25
2024-01-22T08:55:31.590Z,147682.81
2024-01-22T08:56:35.331Z,147660.00
2024-01-22T08:57:38.792Z,147708.13
2024-01-22T08:58:41.401Z,147599.22
2024-01-22T08:59:51.722Z,147629.64
2024-01-22T09:00:57.803Z,147695.47
2024-01-22T09:02:04.004Z,147687.87
2024-01-22T09:03:08.242Z,147643.55
2024-01-22T09:04:11.325Z,147601.78
2024-01-22T09:05:52.974Z,147609.34
2024-01-22T09:06:57.684Z,147647.34
2024-01-22T09:08:01.632Z,147820.92
2024-01-22T09:09:05.654Z,147842.44
2024-01-22T09:10:11.709Z,147831.08
2024-01-22T09:11:14.449Z,147855.16
2024-01-22T09:12:18.093Z,147888.09
2024-01-22T09:13:21.421Z,147877.94
2024-01-22T09:14:24.255Z,147950.22
2024-01-22T09:15:26.394Z,147898.27
2024-01-22T09:16:29.469Z,147921.03
2024-01-22T09:17:31.771Z,147864.02
2024-01-22T09:18:35.650Z,147874.13
2024-01-22T09:19:38.227Z,147893.16
2024-01-22T09:20:41.205Z,147860.22
2024-01-22T09:21:46.850Z,147856.41
2024-01-22T09:22:49.061Z,147883.03
2024-01-22T09:23:51.886Z,147951.48
2024-01-22T09:24:55.258Z,147988.23
2024-01-22T09:25:58.281Z,147888.09
2024-01-22T09:27:01.779Z,147954.03
2024-01-22T09:28:04.757Z,147979.37
2024-01-22T09:29:06.820Z,147974.31
2024-01-22T09:30:10.806Z,147856.41
2024-01-22T09:31:12.976Z,148021.25
2024-01-22T09:32:16.719Z,148032.61
2024-01-22T09:33:22.456Z,147833.59
2024-01-22T09:34:26.023Z,147893.16
2024-01-22T09:35:28.090Z,147857.66
2024-01-22T09:36:32.180Z,147959.09
2024-01-22T09:37:35.403Z,147989.53
2024-01-22T09:38:41.860Z,147915.98
2024-01-22T09:39:47.116Z,147931.20
2024-01-22T09:40:51.583Z,147800.66
2024-01-22T09:41:54.648Z,147931.20
2024-01-22T09:42:57.171Z,147770.22
2024-01-22T09:44:00.749Z,147921.03
2024-01-22T09:45:06.204Z,147929.95
2024-01-22T09:46:10.998Z,147956.53
2024-01-22T09:47:13.628Z,147888.09
2024-01-22T09:48:17.260Z,148008.53
2024-01-22T09:49:20.278Z,148041.53
2024-01-22T09:50:22.752Z,147905.81
2024-01-22T09:51:28.101Z,148035.16
2024-01-22T09:52:33.896Z,148071.94
2024-01-22T09:53:36.647Z,148037.72
2024-01-22T09:54:42.017Z,147969.22
2024-01-22T09:55:47.002Z,147974.31
2024-01-22T09:56:52.374Z,147956.53
2024-01-22T09:57:59.124Z,147912.17
2024-01-22T09:59:05.063Z,148016.12
2024-01-22T10:00:12.576Z,148040.22
2024-01-22T10:01:17.013Z,147946.42
2024-01-22T10:02:20.236Z,147957.84
2024-01-22T10:03:24.937Z,148012.33
2024-01-22T10:04:27.372Z,147970.52
2024-01-22T10:05:31.949Z,147884.30
2024-01-22T10:06:34.994Z,147964.16
2024-01-22T10:07:37.101Z,147984.44
2024-01-22T10:08:39.119Z,147979.37
2024-01-22T10:09:44.669Z,147962.91
2024-01-22T10:10:47.793Z,147948.94
2024-01-22T10:11:50.799Z,147978.12
2024-01-22T10:13:01.802Z,147907.13
2024-01-22T10:14:03.776Z,147936.27
2024-01-22T10:15:15.089Z,147961.64
2024-01-22T10:16:20.621Z,148028.86
2024-01-22T10:17:23.512Z,148046.58
2024-01-22T10:18:26.709Z,148028.86
2024-01-22T10:19:30.779Z,147890.66
2024-01-22T10:20:34.278Z,147926.14
2024-01-22T10:21:41.575Z,148002.20
2024-01-22T10:22:44.766Z,147951.48
2024-01-22T10:23:59.743Z,147959.09
2024-01-22T10:25:03.070Z,147999.66
2024-01-22T10:26:06.969Z,147918.53
2024-01-22T10:27:16.415Z,147908.37
2024-01-22T10:28:19.134Z,147969.22
2024-01-22T10:29:21.700Z,148002.20
2024-01-22T10:30:24.655Z,147966.70
2024-01-22T10:31:27.146Z,147974.31
2024-01-22T10:32:29.213Z,147988.23
2024-01-22T10:33:32.699Z,147831.08
2024-01-22T10:34:48.810Z,147728.44
2024-01-22T10:35:51.039Z,147853.86
2024-01-22T10:37:12.426Z,147784.19
2024-01-22T10:38:17.069Z,147875.44
2024-01-22T10:39:19.619Z,147829.78
2024-01-22T10:40:25.626Z,147956.53
2024-01-22T10:41:27.829Z,147880.48
2024-01-22T10:42:31.289Z,147948.94
2024-01-22T10:43:34.305Z,147989.53
2024-01-22T10:44:38.233Z,147946.42
2024-01-22T10:45:41.788Z,147905.81
2024-01-22T10:46:46.379Z,147923.59
2024-01-22T10:47:50.628Z,147937.52
2024-01-22T10:48:55.747Z,148014.88
2024-01-22T10:50:01.770Z,147943.88
2024-01-22T10:51:05.466Z,148080.84
2024-01-22T10:52:10.048Z,147955.28
2024-01-22T10:53:12.442Z,147955.28
2024-01-22T10:54:14.689Z,148051.64
2024-01-22T10:55:18.034Z,148032.61
2024-01-22T10:56:27.995Z,147984.44
2024-01-22T10:57:34.438Z,147921.03
2024-01-22T10:58:42.497Z,148000.91
2024-01-22T10:59:51.724Z,147931.20
2024-01-22T11:01:00.486Z,147941.31
2024-01-22T11:02:07.674Z,148032.61
2024-01-22T11:03:14.092Z,147955.28
2024-01-22T11:04:20.956Z,148066.88
2024-01-22T11:05:28.045Z,148132.84
2024-01-22T11:06:35.649Z,148084.66
2024-01-22T11:07:40.292Z,148084.66
2024-01-22T11:08:47.139Z,148108.75
2024-01-22T11:09:57.868Z,148116.36
2024-01-22T11:11:00.110Z,148055.45
2024-01-22T11:12:10.725Z,147890.66
2024-01-22T11:13:14.380Z,147969.22
2024-01-22T11:14:17.563Z,147931.20
2024-01-22T11:15:19.880Z,147974.31
2024-01-22T11:16:25.515Z,147979.37
2024-01-22T11:17:28.468Z,147988.23
2024-01-22T11:18:30.713Z,147999.66
2024-01-22T11:19:34.488Z,147766.42
2024-01-22T11:20:38.642Z,147852.61
2024-01-22T11:21:41.519Z,147865.27
2024-01-22T11:23:02.465Z,147894.45
2024-01-22T11:24:15.777Z,147936.27
2024-01-22T11:25:20.932Z,147895.70
2024-01-22T11:26:24.200Z,147727.14
2024-01-22T11:27:41.663Z,147881.75
2024-01-22T11:29:04.657Z,147894.45
2024-01-22T11:30:28.075Z,147924.84
2024-01-22T11:31:30.296Z,147788.00
2024-01-22T11:32:32.772Z,147918.53
2024-01-22T11:33:35.570Z,147941.31
2024-01-22T11:34:45.015Z,147984.44
2024-01-22T11:35:46.841Z,147796.84
2024-01-22T11:36:55.159Z,147857.66
2024-01-22T11:37:58.215Z,147945.13
2024-01-22T11:39:00.419Z,147971.77
2024-01-22T11:40:05.735Z,147962.91
2024-01-22T11:41:09.326Z,148016.12
2024-01-22T11:42:22.426Z,148012.33
2024-01-22T11:43:27.998Z,147964.16
2024-01-22T11:44:32.538Z,148035.16
2024-01-22T11:45:41.852Z,147890.66
2024-01-22T11:46:41.254Z,147900.77
2024-01-22T11:47:46.259Z,147763.92
2024-01-22T11:48:53.141Z,147877.94
2024-01-22T11:50:01.394Z,147857.66
2024-01-22T11:51:08.465Z,147822.17
2024-01-22T11:52:13.376Z,147898.27
2024-01-22T11:53:15.403Z,147898.27
2024-01-22T11:54:17.860Z,147856.41
2024-01-22T11:55:22.906Z,147814.56
2024-01-22T11:56:26.179Z,147828.53
2024-01-22T11:57:35.081Z,147808.25
2024-01-22T11:58:37.157Z,147818.38
2024-01-22T11:59:39.883Z,147722.09
2024-01-22T12:00:43.504Z,147743.61
2024-01-22T12:01:50.630Z,147642.30
2024-01-22T12:02:52.933Z,147718.28
2024-01-22T12:03:57.640Z,147667.61
2024-01-22T12:05:08.240Z,147715.73
2024-01-22T12:06:11.165Z,147665.09
2024-01-22T12:07:14.307Z,147755.02